sensor_id;sensor_type;location;lat;lon;timestamp;P1;durP1;ratioP1;P2;durP2;ratioP2
7049;SDS011;22263;52.260;10.548;2023-02-28T00:00:03;0.67;;;0.67;;
7049;SDS011;22263;52.260;10.548;2023-02-28T00:02:39;0.70;;;0.70;;
7049;SDS011;22263;52.260;10.548;2023-02-28T00:05:17;0.50;;;0.50;;
7049;SDS011;22263;52.260;10.548;2023-02-28T00:07:50;0.80;;;0.80;;
7049;SDS011;22263;52.260;10.548;2023-02-28T00:10:21;0.40;;;0.40;;
7049;SDS011;22263;52.260;10.548;2023-02-28T00:12:53;0.60;;;0.60;;
7049;SDS011;22263;52.260;10.548;2023-02-28T00:15:24;0.60;;;0.60;;
7049;SDS011;22263;52.260;10.548;2023-02-28T00:17:56;0.50;;;0.50;;
7049;SDS011;22263;52.260;10.548;2023-02-28T00:20:26;0.70;;;0.70;;
7049;SDS011;22263;52.260;10.548;2023-02-28T00:22:56;0.50;;;0.50;;
7049;SDS011;22263;52.260;10.548;2023-02-28T00:25:25;0.67;;;0.67;;
7049;SDS011;22263;52.260;10.548;2023-02-28T00:27:55;0.80;;;0.80;;
7049;SDS011;22263;52.260;10.548;2023-02-28T00:30:24;0.70;;;0.70;;
7049;SDS011;22263;52.260;10.548;2023-02-28T00:32:57;0.57;;;0.57;;
7049;SDS011;22263;52.260;10.548;2023-02-28T00:35:26;0.70;;;0.70;;
7049;SDS011;22263;52.260;10.548;2023-02-28T00:37:56;0.70;;;0.70;;
7049;SDS011;22263;52.260;10.548;2023-02-28T00:40:26;0.70;;;0.70;;
7049;SDS011;22263;52.260;10.548;2023-02-28T00:42:56;0.68;;;0.68;;
7049;SDS011;22263;52.260;10.548;2023-02-28T00:45:25;0.70;;;0.70;;
7049;SDS011;22263;52.260;10.548;2023-02-28T00:48:15;0.80;;;0.80;;
7049;SDS011;22263;52.260;10.548;2023-02-28T00:50:47;0.70;;;0.70;;
7049;SDS011;22263;52.260;10.548;2023-02-28T00:53:17;0.70;;;0.70;;
7049;SDS011;22263;52.260;10.548;2023-02-28T00:55:48;0.70;;;0.70;;
7049;SDS011;22263;52.260;10.548;2023-02-28T00:58:18;0.70;;;0.70;;
7049;SDS011;22263;52.260;10.548;2023-02-28T01:00:48;0.63;;;0.63;;
7049;SDS011;22263;52.260;10.548;2023-02-28T01:03:20;0.67;;;0.67;;
7049;SDS011;22263;52.260;10.548;2023-02-28T01:05:51;0.40;;;0.40;;
7049;SDS011;22263;52.260;10.548;2023-02-28T01:08:21;0.52;;;0.52;;
7049;SDS011;22263;52.260;10.548;2023-02-28T01:10:52;0.60;;;0.60;;
7049;SDS011;22263;52.260;10.548;2023-02-28T01:13:22;0.75;;;0.75;;
7049;SDS011;22263;52.260;10.548;2023-02-28T01:15:52;0.50;;;0.50;;
7049;SDS011;22263;52.260;10.548;2023-02-28T01:18:27;0.70;;;0.70;;
7049;SDS011;22263;52.260;10.548;2023-02-28T01:20:57;0.70;;;0.70;;
7049;SDS011;22263;52.260;10.548;2023-02-28T01:23:29;0.75;;;0.75;;
7049;SDS011;22263;52.260;10.548;2023-02-28T01:26:02;0.82;;;0.82;;
7049;SDS011;22263;52.260;10.548;2023-02-28T01:28:33;0.60;;;0.60;;
7049;SDS011;22263;52.260;10.548;2023-02-28T01:31:03;0.60;;;0.60;;
7049;SDS011;22263;52.260;10.548;2023-02-28T01:33:36;0.60;;;0.60;;
7049;SDS011;22263;52.260;10.548;2023-02-28T01:36:09;0.60;;;0.60;;
7049;SDS011;22263;52.260;10.548;2023-02-28T01:38:41;0.80;;;0.80;;
7049;SDS011;22263;52.260;10.548;2023-02-28T01:41:14;0.80;;;0.80;;
7049;SDS011;22263;52.260;10.548;2023-02-28T01:43:53;0.60;;;0.60;;
7049;SDS011;22263;52.260;10.548;2023-02-28T01:46:25;0.55;;;0.55;;
7049;SDS011;22263;52.260;10.548;2023-02-28T01:48:58;0.70;;;0.70;;
7049;SDS011;22263;52.260;10.548;2023-02-28T01:51:32;0.70;;;0.70;;
7049;SDS011;22263;52.260;10.548;2023-02-28T01:54:07;0.50;;;0.50;;
7049;SDS011;22263;52.260;10.548;2023-02-28T01:56:42;0.50;;;0.50;;
7049;SDS011;22263;52.260;10.548;2023-02-28T01:59:18;0.70;;;0.70;;
7049;SDS011;22263;52.260;10.548;2023-02-28T02:01:52;0.50;;;0.50;;
7049;SDS011;22263;52.260;10.548;2023-02-28T02:04:27;0.70;;;0.70;;
7049;SDS011;22263;52.260;10.548;2023-02-28T02:07:04;0.70;;;0.70;;
7049;SDS011;22263;52.260;10.548;2023-02-28T02:09:34;0.70;;;0.70;;
7049;SDS011;22263;52.260;10.548;2023-02-28T02:12:06;0.50;;;0.50;;
7049;SDS011;22263;52.260;10.548;2023-02-28T02:14:45;0.70;;;0.70;;
7049;SDS011;22263;52.260;10.548;2023-02-28T02:17:26;0.60;;;0.60;;
7049;SDS011;22263;52.260;10.548;2023-02-28T02:26:04;0.60;;;0.60;;
7049;SDS011;22263;52.260;10.548;2023-02-28T02:28:59;0.90;;;0.90;;
7049;SDS011;22263;52.260;10.548;2023-02-28T02:31:49;0.63;;;0.63;;
7049;SDS011;22263;52.260;10.548;2023-02-28T02:34:31;0.77;;;0.77;;
7049;SDS011;22263;52.260;10.548;2023-02-28T02:37:13;0.70;;;0.70;;
7049;SDS011;22263;52.260;10.548;2023-02-28T02:39:52;0.67;;;0.67;;
7049;SDS011;22263;52.260;10.548;2023-02-28T02:42:24;0.50;;;0.50;;
7049;SDS011;22263;52.260;10.548;2023-02-28T02:45:11;0.70;;;0.70;;
7049;SDS011;22263;52.260;10.548;2023-02-28T02:47:45;0.50;;;0.50;;
7049;SDS011;22263;52.260;10.548;2023-02-28T02:50:19;0.60;;;0.60;;
7049;SDS011;22263;52.260;10.548;2023-02-28T02:52:57;0.80;;;0.80;;
7049;SDS011;22263;52.260;10.548;2023-02-28T02:55:31;0.70;;;0.70;;
7049;SDS011;22263;52.260;10.548;2023-02-28T02:58:07;0.50;;;0.50;;
7049;SDS011;22263;52.260;10.548;2023-02-28T03:00:42;0.60;;;0.60;;
7049;SDS011;22263;52.260;10.548;2023-02-28T03:03:16;0.70;;;0.70;;
7049;SDS011;22263;52.260;10.548;2023-02-28T03:05:58;0.70;;;0.70;;
7049;SDS011;22263;52.260;10.548;2023-02-28T03:08:33;0.50;;;0.50;;
7049;SDS011;22263;52.260;10.548;2023-02-28T03:11:05;0.60;;;0.60;;
7049;SDS011;22263;52.260;10.548;2023-02-28T03:13:44;0.60;;;0.60;;
7049;SDS011;22263;52.260;10.548;2023-02-28T03:16:34;0.50;;;0.50;;
7049;SDS011;22263;52.260;10.548;2023-02-28T03:19:30;0.80;;;0.80;;
7049;SDS011;22263;52.260;10.548;2023-02-28T03:22:13;0.60;;;0.60;;
7049;SDS011;22263;52.260;10.548;2023-02-28T03:24:49;0.47;;;0.47;;
7049;SDS011;22263;52.260;10.548;2023-02-28T03:27:26;0.70;;;0.70;;
7049;SDS011;22263;52.260;10.548;2023-02-28T03:30:00;0.60;;;0.60;;
7049;SDS011;22263;52.260;10.548;2023-02-28T03:32:33;0.55;;;0.55;;
7049;SDS011;22263;52.260;10.548;2023-02-28T03:35:06;0.90;;;0.90;;
7049;SDS011;22263;52.260;10.548;2023-02-28T03:37:43;0.70;;;0.70;;
7049;SDS011;22263;52.260;10.548;2023-02-28T03:40:15;0.80;;;0.80;;
7049;SDS011;22263;52.260;10.548;2023-02-28T03:42:49;0.70;;;0.70;;
7049;SDS011;22263;52.260;10.548;2023-02-28T03:45:25;0.40;;;0.40;;
7049;SDS011;22263;52.260;10.548;2023-02-28T03:47:58;0.70;;;0.70;;
7049;SDS011;22263;52.260;10.548;2023-02-28T03:50:34;0.47;;;0.47;;
7049;SDS011;22263;52.260;10.548;2023-02-28T03:53:11;0.70;;;0.70;;
7049;SDS011;22263;52.260;10.548;2023-02-28T03:55:44;0.60;;;0.60;;
7049;SDS011;22263;52.260;10.548;2023-02-28T03:58:19;0.60;;;0.60;;
7049;SDS011;22263;52.260;10.548;2023-02-28T04:00:52;0.60;;;0.60;;
7049;SDS011;22263;52.260;10.548;2023-02-28T04:03:26;0.75;;;0.75;;
7049;SDS011;22263;52.260;10.548;2023-02-28T04:05:56;0.70;;;0.70;;
7049;SDS011;22263;52.260;10.548;2023-02-28T04:08:30;0.80;;;0.80;;
7049;SDS011;22263;52.260;10.548;2023-02-28T04:11:00;0.80;;;0.80;;
7049;SDS011;22263;52.260;10.548;2023-02-28T04:13:34;0.60;;;0.60;;
7049;SDS011;22263;52.260;10.548;2023-02-28T04:16:06;0.70;;;0.70;;
7049;SDS011;22263;52.260;10.548;2023-02-28T04:18:58;0.60;;;0.60;;
7049;SDS011;22263;52.260;10.548;2023-02-28T04:21:29;0.55;;;0.55;;
7049;SDS011;22263;52.260;10.548;2023-02-28T04:24:02;0.60;;;0.60;;
7049;SDS011;22263;52.260;10.548;2023-02-28T04:26:33;0.70;;;0.70;;
7049;SDS011;22263;52.260;10.548;2023-02-28T04:29:04;0.70;;;0.70;;
7049;SDS011;22263;52.260;10.548;2023-02-28T04:31:35;0.50;;;0.50;;
7049;SDS011;22263;52.260;10.548;2023-02-28T04:34:04;0.50;;;0.50;;
7049;SDS011;22263;52.260;10.548;2023-02-28T04:36:34;0.70;;;0.70;;
7049;SDS011;22263;52.260;10.548;2023-02-28T04:39:06;0.60;;;0.60;;
7049;SDS011;22263;52.260;10.548;2023-02-28T04:41:36;0.80;;;0.80;;
7049;SDS011;22263;52.260;10.548;2023-02-28T04:44:06;0.60;;;0.60;;
7049;SDS011;22263;52.260;10.548;2023-02-28T04:46:35;0.75;;;0.75;;
7049;SDS011;22263;52.260;10.548;2023-02-28T04:49:05;0.70;;;0.70;;
7049;SDS011;22263;52.260;10.548;2023-02-28T04:51:34;0.50;;;0.50;;
7049;SDS011;22263;52.260;10.548;2023-02-28T04:54:07;0.40;;;0.40;;
7049;SDS011;22263;52.260;10.548;2023-02-28T04:56:37;0.60;;;0.60;;
7049;SDS011;22263;52.260;10.548;2023-02-28T04:59:06;0.50;;;0.50;;
7049;SDS011;22263;52.260;10.548;2023-02-28T05:01:36;0.60;;;0.60;;
7049;SDS011;22263;52.260;10.548;2023-02-28T05:04:05;0.70;;;0.70;;
7049;SDS011;22263;52.260;10.548;2023-02-28T05:06:35;0.80;;;0.80;;
7049;SDS011;22263;52.260;10.548;2023-02-28T05:09:07;0.80;;;0.80;;
7049;SDS011;22263;52.260;10.548;2023-02-28T05:11:38;0.70;;;0.70;;
7049;SDS011;22263;52.260;10.548;2023-02-28T05:14:09;0.60;;;0.60;;
7049;SDS011;22263;52.260;10.548;2023-02-28T05:16:41;0.70;;;0.70;;
7049;SDS011;22263;52.260;10.548;2023-02-28T05:19:10;0.57;;;0.57;;
7049;SDS011;22263;52.260;10.548;2023-02-28T05:21:40;0.70;;;0.70;;
7049;SDS011;22263;52.260;10.548;2023-02-28T05:24:19;0.70;;;0.70;;
7049;SDS011;22263;52.260;10.548;2023-02-28T05:26:52;0.60;;;0.60;;
7049;SDS011;22263;52.260;10.548;2023-02-28T05:29:22;0.50;;;0.50;;
7049;SDS011;22263;52.260;10.548;2023-02-28T05:31:52;0.70;;;0.70;;
7049;SDS011;22263;52.260;10.548;2023-02-28T05:34:22;0.70;;;0.70;;
7049;SDS011;22263;52.260;10.548;2023-02-28T05:36:51;0.70;;;0.70;;
7049;SDS011;22263;52.260;10.548;2023-02-28T05:39:23;0.60;;;0.60;;
7049;SDS011;22263;52.260;10.548;2023-02-28T05:41:53;0.70;;;0.70;;
7049;SDS011;22263;52.260;10.548;2023-02-28T05:44:23;0.70;;;0.70;;
7049;SDS011;22263;52.260;10.548;2023-02-28T05:46:52;0.60;;;0.60;;
7049;SDS011;22263;52.260;10.548;2023-02-28T05:49:22;0.70;;;0.70;;
7049;SDS011;22263;52.260;10.548;2023-02-28T05:51:51;0.80;;;0.80;;
7049;SDS011;22263;52.260;10.548;2023-02-28T05:54:23;0.77;;;0.77;;
7049;SDS011;22263;52.260;10.548;2023-02-28T05:56:53;0.70;;;0.70;;
7049;SDS011;22263;52.260;10.548;2023-02-28T05:59:23;0.50;;;0.50;;
7049;SDS011;22263;52.260;10.548;2023-02-28T06:01:52;0.55;;;0.55;;
7049;SDS011;22263;52.260;10.548;2023-02-28T06:04:22;0.40;;;0.40;;
7049;SDS011;22263;52.260;10.548;2023-02-28T06:06:58;0.70;;;0.70;;
7049;SDS011;22263;52.260;10.548;2023-02-28T06:09:30;0.80;;;0.80;;
7049;SDS011;22263;52.260;10.548;2023-02-28T06:12:00;0.80;;;0.80;;
7049;SDS011;22263;52.260;10.548;2023-02-28T06:14:32;0.53;;;0.53;;
7049;SDS011;22263;52.260;10.548;2023-02-28T06:17:03;0.60;;;0.60;;
7049;SDS011;22263;52.260;10.548;2023-02-28T06:19:34;0.55;;;0.55;;
7049;SDS011;22263;52.260;10.548;2023-02-28T06:22:07;0.70;;;0.70;;
7049;SDS011;22263;52.260;10.548;2023-02-28T06:24:39;0.70;;;0.70;;
7049;SDS011;22263;52.260;10.548;2023-02-28T06:27:09;0.70;;;0.70;;
7049;SDS011;22263;52.260;10.548;2023-02-28T06:29:38;0.47;;;0.47;;
7049;SDS011;22263;52.260;10.548;2023-02-28T06:32:08;0.75;;;0.75;;
7049;SDS011;22263;52.260;10.548;2023-02-28T06:34:38;0.50;;;0.50;;
7049;SDS011;22263;52.260;10.548;2023-02-28T06:37:07;0.80;;;0.80;;
7049;SDS011;22263;52.260;10.548;2023-02-28T06:39:39;0.70;;;0.70;;
7049;SDS011;22263;52.260;10.548;2023-02-28T06:42:09;0.75;;;0.75;;
7049;SDS011;22263;52.260;10.548;2023-02-28T06:44:38;0.57;;;0.57;;
7049;SDS011;22263;52.260;10.548;2023-02-28T06:47:09;0.80;;;0.80;;
7049;SDS011;22263;52.260;10.548;2023-02-28T06:49:38;0.70;;;0.70;;
7049;SDS011;22263;52.260;10.548;2023-02-28T06:52:08;0.50;;;0.50;;
7049;SDS011;22263;52.260;10.548;2023-02-28T06:54:40;0.50;;;0.50;;
7049;SDS011;22263;52.260;10.548;2023-02-28T06:57:10;0.65;;;0.65;;
7049;SDS011;22263;52.260;10.548;2023-02-28T06:59:40;0.75;;;0.75;;
7049;SDS011;22263;52.260;10.548;2023-02-28T07:02:09;0.77;;;0.77;;
7049;SDS011;22263;52.260;10.548;2023-02-28T07:04:39;0.80;;;0.80;;
7049;SDS011;22263;52.260;10.548;2023-02-28T07:07:11;0.70;;;0.70;;
7049;SDS011;22263;52.260;10.548;2023-02-28T07:09:43;0.70;;;0.70;;
7049;SDS011;22263;52.260;10.548;2023-02-28T07:12:13;0.70;;;0.70;;
7049;SDS011;22263;52.260;10.548;2023-02-28T07:14:42;0.70;;;0.70;;
7049;SDS011;22263;52.260;10.548;2023-02-28T07:17:12;0.70;;;0.70;;
7049;SDS011;22263;52.260;10.548;2023-02-28T07:19:42;0.75;;;0.75;;
7049;SDS011;22263;52.260;10.548;2023-02-28T07:22:11;0.82;;;0.82;;
7049;SDS011;22263;52.260;10.548;2023-02-28T07:24:44;0.52;;;0.52;;
7049;SDS011;22263;52.260;10.548;2023-02-28T07:27:13;0.77;;;0.77;;
7049;SDS011;22263;52.260;10.548;2023-02-28T07:29:53;0.75;;;0.75;;
7049;SDS011;22263;52.260;10.548;2023-02-28T07:32:23;0.70;;;0.70;;
7049;SDS011;22263;52.260;10.548;2023-02-28T07:34:53;0.57;;;0.57;;
7049;SDS011;22263;52.260;10.548;2023-02-28T07:37:23;0.70;;;0.70;;
7049;SDS011;22263;52.260;10.548;2023-02-28T07:39:55;0.60;;;0.60;;
7049;SDS011;22263;52.260;10.548;2023-02-28T07:42:24;0.60;;;0.60;;
7049;SDS011;22263;52.260;10.548;2023-02-28T07:44:54;0.80;;;0.80;;
7049;SDS011;22263;52.260;10.548;2023-02-28T07:47:25;0.60;;;0.60;;
7049;SDS011;22263;52.260;10.548;2023-02-28T07:49:54;0.70;;;0.70;;
7049;SDS011;22263;52.260;10.548;2023-02-28T07:52:24;0.55;;;0.55;;
7049;SDS011;22263;52.260;10.548;2023-02-28T07:54:56;0.60;;;0.60;;
7049;SDS011;22263;52.260;10.548;2023-02-28T07:57:26;0.65;;;0.65;;
7049;SDS011;22263;52.260;10.548;2023-02-28T07:59:55;0.50;;;0.50;;
7049;SDS011;22263;52.260;10.548;2023-02-28T08:02:25;0.60;;;0.60;;
7049;SDS011;22263;52.260;10.548;2023-02-28T08:04:54;0.60;;;0.60;;
7049;SDS011;22263;52.260;10.548;2023-02-28T08:07:24;0.60;;;0.60;;
7049;SDS011;22263;52.260;10.548;2023-02-28T08:09:56;0.60;;;0.60;;
7049;SDS011;22263;52.260;10.548;2023-02-28T08:12:26;0.60;;;0.60;;
7049;SDS011;22263;52.260;10.548;2023-02-28T08:14:56;0.50;;;0.50;;
7049;SDS011;22263;52.260;10.548;2023-02-28T08:17:25;0.40;;;0.40;;
7049;SDS011;22263;52.260;10.548;2023-02-28T08:19:55;0.57;;;0.57;;
7049;SDS011;22263;52.260;10.548;2023-02-28T08:22:24;0.50;;;0.50;;
7049;SDS011;22263;52.260;10.548;2023-02-28T08:24:56;0.50;;;0.50;;
7049;SDS011;22263;52.260;10.548;2023-02-28T08:27:26;0.52;;;0.52;;
7049;SDS011;22263;52.260;10.548;2023-02-28T08:29:56;0.63;;;0.63;;
7049;SDS011;22263;52.260;10.548;2023-02-28T08:32:25;0.57;;;0.57;;
7049;SDS011;22263;52.260;10.548;2023-02-28T08:34:56;0.50;;;0.50;;
7049;SDS011;22263;52.260;10.548;2023-02-28T08:37:25;0.50;;;0.50;;
7049;SDS011;22263;52.260;10.548;2023-02-28T08:39:57;0.50;;;0.50;;
7049;SDS011;22263;52.260;10.548;2023-02-28T08:42:27;0.50;;;0.50;;
7049;SDS011;22263;52.260;10.548;2023-02-28T08:44:57;0.50;;;0.50;;
7049;SDS011;22263;52.260;10.548;2023-02-28T08:47:26;0.40;;;0.40;;
7049;SDS011;22263;52.260;10.548;2023-02-28T08:49:56;0.50;;;0.50;;
7049;SDS011;22263;52.260;10.548;2023-02-28T08:52:26;0.40;;;0.40;;
7049;SDS011;22263;52.260;10.548;2023-02-28T08:54:58;0.43;;;0.43;;
7049;SDS011;22263;52.260;10.548;2023-02-28T08:57:28;0.32;;;0.32;;
7049;SDS011;22263;52.260;10.548;2023-02-28T08:59:58;0.30;;;0.30;;
7049;SDS011;22263;52.260;10.548;2023-02-28T09:02:30;0.40;;;0.40;;
7049;SDS011;22263;52.260;10.548;2023-02-28T09:05:00;0.40;;;0.40;;
7049;SDS011;22263;52.260;10.548;2023-02-28T09:07:30;0.40;;;0.40;;
7049;SDS011;22263;52.260;10.548;2023-02-28T09:10:02;0.40;;;0.40;;
7049;SDS011;22263;52.260;10.548;2023-02-28T09:12:33;0.38;;;0.38;;
7049;SDS011;22263;52.260;10.548;2023-02-28T09:15:04;0.30;;;0.30;;
7049;SDS011;22263;52.260;10.548;2023-02-28T09:17:35;0.30;;;0.30;;
7049;SDS011;22263;52.260;10.548;2023-02-28T09:20:05;0.20;;;0.20;;
7049;SDS011;22263;52.260;10.548;2023-02-28T09:22:35;0.40;;;0.40;;
7049;SDS011;22263;52.260;10.548;2023-02-28T09:25:07;0.30;;;0.30;;
7049;SDS011;22263;52.260;10.548;2023-02-28T09:27:37;0.30;;;0.30;;
7049;SDS011;22263;52.260;10.548;2023-02-28T09:30:09;0.30;;;0.30;;
7049;SDS011;22263;52.260;10.548;2023-02-28T09:32:39;0.32;;;0.32;;
7049;SDS011;22263;52.260;10.548;2023-02-28T09:35:18;0.40;;;0.40;;
7049;SDS011;22263;52.260;10.548;2023-02-28T09:37:48;0.32;;;0.32;;
7049;SDS011;22263;52.260;10.548;2023-02-28T09:40:22;0.35;;;0.35;;
7049;SDS011;22263;52.260;10.548;2023-02-28T09:42:54;0.30;;;0.30;;
7049;SDS011;22263;52.260;10.548;2023-02-28T09:45:27;0.35;;;0.35;;
7049;SDS011;22263;52.260;10.548;2023-02-28T09:48:00;0.40;;;0.40;;
7049;SDS011;22263;52.260;10.548;2023-02-28T09:50:34;0.30;;;0.30;;
7049;SDS011;22263;52.260;10.548;2023-02-28T09:53:11;0.40;;;0.40;;
7049;SDS011;22263;52.260;10.548;2023-02-28T09:55:51;0.40;;;0.40;;
7049;SDS011;22263;52.260;10.548;2023-02-28T09:58:26;0.40;;;0.40;;
7049;SDS011;22263;52.260;10.548;2023-02-28T10:01:09;0.50;;;0.50;;
7049;SDS011;22263;52.260;10.548;2023-02-28T10:03:48;0.50;;;0.50;;
7049;SDS011;22263;52.260;10.548;2023-02-28T10:06:27;0.30;;;0.30;;
7049;SDS011;22263;52.260;10.548;2023-02-28T10:09:00;0.30;;;0.30;;
7049;SDS011;22263;52.260;10.548;2023-02-28T10:11:38;0.40;;;0.40;;
7049;SDS011;22263;52.260;10.548;2023-02-28T10:14:11;0.40;;;0.40;;
7049;SDS011;22263;52.260;10.548;2023-02-28T10:16:45;0.40;;;0.40;;
7049;SDS011;22263;52.260;10.548;2023-02-28T10:19:19;0.43;;;0.43;;
7049;SDS011;22263;52.260;10.548;2023-02-28T10:21:53;0.40;;;0.40;;
7049;SDS011;22263;52.260;10.548;2023-02-28T10:24:29;0.50;;;0.50;;
7049;SDS011;22263;52.260;10.548;2023-02-28T10:27:12;0.40;;;0.40;;
7049;SDS011;22263;52.260;10.548;2023-02-28T10:29:45;0.40;;;0.40;;
7049;SDS011;22263;52.260;10.548;2023-02-28T10:32:16;0.50;;;0.50;;
7049;SDS011;22263;52.260;10.548;2023-02-28T10:34:50;0.50;;;0.50;;
7049;SDS011;22263;52.260;10.548;2023-02-28T10:37:21;0.47;;;0.47;;
7049;SDS011;22263;52.260;10.548;2023-02-28T10:39:51;0.40;;;0.40;;
7049;SDS011;22263;52.260;10.548;2023-02-28T10:42:25;0.40;;;0.40;;
7049;SDS011;22263;52.260;10.548;2023-02-28T10:45:06;0.30;;;0.30;;
7049;SDS011;22263;52.260;10.548;2023-02-28T10:47:42;0.60;;;0.60;;
7049;SDS011;22263;52.260;10.548;2023-02-28T10:50:29;0.30;;;0.30;;
7049;SDS011;22263;52.260;10.548;2023-02-28T10:56:05;0.40;;;0.40;;
7049;SDS011;22263;52.260;10.548;2023-02-28T10:58:50;0.40;;;0.40;;
7049;SDS011;22263;52.260;10.548;2023-02-28T11:01:23;0.40;;;0.40;;
7049;SDS011;22263;52.260;10.548;2023-02-28T11:03:54;0.40;;;0.40;;
7049;SDS011;22263;52.260;10.548;2023-02-28T11:06:24;0.40;;;0.40;;
7049;SDS011;22263;52.260;10.548;2023-02-28T11:08:59;0.40;;;0.40;;
7049;SDS011;22263;52.260;10.548;2023-02-28T11:11:30;0.40;;;0.40;;
7049;SDS011;22263;52.260;10.548;2023-02-28T11:14:18;0.40;;;0.40;;
7049;SDS011;22263;52.260;10.548;2023-02-28T11:16:49;0.30;;;0.30;;
7049;SDS011;22263;52.260;10.548;2023-02-28T11:19:22;0.40;;;0.40;;
7049;SDS011;22263;52.260;10.548;2023-02-28T11:21:55;0.40;;;0.40;;
7049;SDS011;22263;52.260;10.548;2023-02-28T11:24:27;0.50;;;0.50;;
7049;SDS011;22263;52.260;10.548;2023-02-28T11:26:59;0.30;;;0.30;;
7049;SDS011;22263;52.260;10.548;2023-02-28T11:29:32;0.38;;;0.38;;
7049;SDS011;22263;52.260;10.548;2023-02-28T11:32:05;0.30;;;0.30;;
7049;SDS011;22263;52.260;10.548;2023-02-28T11:34:41;0.30;;;0.30;;
7049;SDS011;22263;52.260;10.548;2023-02-28T11:37:12;0.35;;;0.35;;
7049;SDS011;22263;52.260;10.548;2023-02-28T11:39:44;0.30;;;0.30;;
7049;SDS011;22263;52.260;10.548;2023-02-28T11:42:23;0.30;;;0.30;;
7049;SDS011;22263;52.260;10.548;2023-02-28T11:45:19;0.30;;;0.30;;
7049;SDS011;22263;52.260;10.548;2023-02-28T11:47:59;0.30;;;0.30;;
7049;SDS011;22263;52.260;10.548;2023-02-28T11:50:39;0.25;;;0.25;;
7049;SDS011;22263;52.260;10.548;2023-02-28T11:53:17;0.30;;;0.30;;
7049;SDS011;22263;52.260;10.548;2023-02-28T11:55:54;0.28;;;0.28;;
7049;SDS011;22263;52.260;10.548;2023-02-28T11:58:37;0.30;;;0.30;;
7049;SDS011;22263;52.260;10.548;2023-02-28T12:01:18;0.30;;;0.30;;
7049;SDS011;22263;52.260;10.548;2023-02-28T12:03:57;0.30;;;0.30;;
7049;SDS011;22263;52.260;10.548;2023-02-28T12:06:40;0.30;;;0.30;;
7049;SDS011;22263;52.260;10.548;2023-02-28T12:09:20;0.30;;;0.30;;
7049;SDS011;22263;52.260;10.548;2023-02-28T12:12:03;0.30;;;0.30;;
7049;SDS011;22263;52.260;10.548;2023-02-28T12:14:54;0.30;;;0.30;;
7049;SDS011;22263;52.260;10.548;2023-02-28T12:17:50;0.28;;;0.28;;
7049;SDS011;22263;52.260;10.548;2023-02-28T12:20:32;0.20;;;0.20;;
7049;SDS011;22263;52.260;10.548;2023-02-28T12:26:15;0.30;;;0.30;;
7049;SDS011;22263;52.260;10.548;2023-02-28T12:28:52;0.20;;;0.20;;
7049;SDS011;22263;52.260;10.548;2023-02-28T12:31:27;0.30;;;0.30;;
7049;SDS011;22263;52.260;10.548;2023-02-28T12:34:03;0.20;;;0.20;;
7049;SDS011;22263;52.260;10.548;2023-02-28T12:36:37;0.20;;;0.20;;
7049;SDS011;22263;52.260;10.548;2023-02-28T12:39:12;0.20;;;0.20;;
7049;SDS011;22263;52.260;10.548;2023-02-28T12:41:51;0.20;;;0.20;;
7049;SDS011;22263;52.260;10.548;2023-02-28T12:44:25;0.20;;;0.20;;
7049;SDS011;22263;52.260;10.548;2023-02-28T12:47:00;0.30;;;0.30;;
7049;SDS011;22263;52.260;10.548;2023-02-28T12:49:36;0.20;;;0.20;;
7049;SDS011;22263;52.260;10.548;2023-02-28T12:52:10;0.22;;;0.22;;
7049;SDS011;22263;52.260;10.548;2023-02-28T12:54:44;0.20;;;0.20;;
7049;SDS011;22263;52.260;10.548;2023-02-28T12:57:27;0.20;;;0.20;;
7049;SDS011;22263;52.260;10.548;2023-02-28T13:00:04;0.30;;;0.30;;
7049;SDS011;22263;52.260;10.548;2023-02-28T13:02:49;0.30;;;0.30;;
7049;SDS011;22263;52.260;10.548;2023-02-28T13:05:49;0.30;;;0.30;;
7049;SDS011;22263;52.260;10.548;2023-02-28T13:08:54;0.25;;;0.25;;
7049;SDS011;22263;52.260;10.548;2023-02-28T13:11:31;0.30;;;0.30;;
7049;SDS011;22263;52.260;10.548;2023-02-28T13:14:03;0.30;;;0.30;;
7049;SDS011;22263;52.260;10.548;2023-02-28T13:19:32;0.30;;;0.30;;
7049;SDS011;22263;52.260;10.548;2023-02-28T13:22:09;0.30;;;0.30;;
7049;SDS011;22263;52.260;10.548;2023-02-28T13:24:47;0.30;;;0.30;;
7049;SDS011;22263;52.260;10.548;2023-02-28T13:27:23;0.30;;;0.30;;
7049;SDS011;22263;52.260;10.548;2023-02-28T13:30:02;0.30;;;0.30;;
7049;SDS011;22263;52.260;10.548;2023-02-28T13:36:12;0.30;;;0.30;;
7049;SDS011;22263;52.260;10.548;2023-02-28T13:38:58;0.30;;;0.30;;
7049;SDS011;22263;52.260;10.548;2023-02-28T13:41:43;0.30;;;0.30;;
7049;SDS011;22263;52.260;10.548;2023-02-28T13:44:18;0.20;;;0.20;;
7049;SDS011;22263;52.260;10.548;2023-02-28T13:49:51;0.30;;;0.30;;
7049;SDS011;22263;52.260;10.548;2023-02-28T13:52:22;0.30;;;0.30;;
7049;SDS011;22263;52.260;10.548;2023-02-28T13:55:01;0.30;;;0.30;;
7049;SDS011;22263;52.260;10.548;2023-02-28T13:57:55;0.30;;;0.30;;
7049;SDS011;22263;52.260;10.548;2023-02-28T14:00:39;0.25;;;0.25;;
7049;SDS011;22263;52.260;10.548;2023-02-28T14:03:24;0.40;;;0.40;;
7049;SDS011;22263;52.260;10.548;2023-02-28T14:06:08;0.30;;;0.30;;
7049;SDS011;22263;52.260;10.548;2023-02-28T14:08:54;0.30;;;0.30;;
7049;SDS011;22263;52.260;10.548;2023-02-28T14:11:33;0.30;;;0.30;;
7049;SDS011;22263;52.260;10.548;2023-02-28T14:14:04;0.30;;;0.30;;
7049;SDS011;22263;52.260;10.548;2023-02-28T14:16:36;0.30;;;0.30;;
7049;SDS011;22263;52.260;10.548;2023-02-28T14:19:12;0.30;;;0.30;;
7049;SDS011;22263;52.260;10.548;2023-02-28T14:21:47;0.40;;;0.40;;
7049;SDS011;22263;52.260;10.548;2023-02-28T14:27:33;0.30;;;0.30;;
7049;SDS011;22263;52.260;10.548;2023-02-28T14:30:27;0.40;;;0.40;;
7049;SDS011;22263;52.260;10.548;2023-02-28T14:33:22;0.30;;;0.30;;
7049;SDS011;22263;52.260;10.548;2023-02-28T14:36:04;0.40;;;0.40;;
7049;SDS011;22263;52.260;10.548;2023-02-28T14:38:40;0.40;;;0.40;;
7049;SDS011;22263;52.260;10.548;2023-02-28T14:41:16;0.30;;;0.30;;
7049;SDS011;22263;52.260;10.548;2023-02-28T14:43:53;0.30;;;0.30;;
7049;SDS011;22263;52.260;10.548;2023-02-28T14:46:25;0.35;;;0.35;;
7049;SDS011;22263;52.260;10.548;2023-02-28T14:48:59;0.40;;;0.40;;
7049;SDS011;22263;52.260;10.548;2023-02-28T14:51:29;0.40;;;0.40;;
7049;SDS011;22263;52.260;10.548;2023-02-28T14:53:59;0.38;;;0.38;;
7049;SDS011;22263;52.260;10.548;2023-02-28T14:56:33;0.40;;;0.40;;
7049;SDS011;22263;52.260;10.548;2023-02-28T14:59:18;0.35;;;0.35;;
7049;SDS011;22263;52.260;10.548;2023-02-28T15:04:56;0.40;;;0.40;;
7049;SDS011;22263;52.260;10.548;2023-02-28T15:07:27;0.38;;;0.38;;
7049;SDS011;22263;52.260;10.548;2023-02-28T15:10:10;0.40;;;0.40;;
7049;SDS011;22263;52.260;10.548;2023-02-28T15:12:46;0.40;;;0.40;;
7049;SDS011;22263;52.260;10.548;2023-02-28T15:15:25;0.30;;;0.30;;
7049;SDS011;22263;52.260;10.548;2023-02-28T15:18:29;0.57;;;0.57;;
7049;SDS011;22263;52.260;10.548;2023-02-28T15:21:03;0.40;;;0.40;;
7049;SDS011;22263;52.260;10.548;2023-02-28T15:23:35;0.40;;;0.40;;
7049;SDS011;22263;52.260;10.548;2023-02-28T15:26:06;0.30;;;0.30;;
7049;SDS011;22263;52.260;10.548;2023-02-28T15:28:37;0.40;;;0.40;;
7049;SDS011;22263;52.260;10.548;2023-02-28T15:31:17;0.32;;;0.32;;
7049;SDS011;22263;52.260;10.548;2023-02-28T15:33:53;0.40;;;0.40;;
7049;SDS011;22263;52.260;10.548;2023-02-28T15:36:25;0.40;;;0.40;;
7049;SDS011;22263;52.260;10.548;2023-02-28T15:39:02;0.40;;;0.40;;
7049;SDS011;22263;52.260;10.548;2023-02-28T15:41:50;0.40;;;0.40;;
7049;SDS011;22263;52.260;10.548;2023-02-28T15:44:24;0.45;;;0.45;;
7049;SDS011;22263;52.260;10.548;2023-02-28T15:47:05;0.40;;;0.40;;
7049;SDS011;22263;52.260;10.548;2023-02-28T15:49:38;0.40;;;0.40;;
7049;SDS011;22263;52.260;10.548;2023-02-28T15:52:14;0.40;;;0.40;;
7049;SDS011;22263;52.260;10.548;2023-02-28T15:54:46;0.40;;;0.40;;
7049;SDS011;22263;52.260;10.548;2023-02-28T15:57:18;0.40;;;0.40;;